EHMA

Awg-1 Sea

Awg-1 Sea, The Netherlands
METAR EHMA 231625Z AUTO 29036KT 9999 FEW015 SCT019 BKN023 14/10 Q1017 W///H///
Observed Flight Rules
Oct-23 @ 16:25 UTC (29 minutes ago) Marginal Visual Flight Rules
Wind Visibility Clouds
290° at 36 knots 10,000+ meters
  • Few at 1,500' AGL
  • Scattered at 1,900' AGL
  • Broken at 2,300' AGL
Temperatures Readings
Current 14°C / 57°F
Dewpoint 10°C / 50°F
Humidity 77%
Altimeter 30.03" Hg
Pressure 1017 hPa
Elevation 50
METAR EHMA 231625Z AUTO 29036KT 9999 FEW015 SCT019 BKN023 14/10 Q1017 W///H///
Observed Flight Rules
Oct-23 @ 16:25 UTC
(29 minutes ago)
MVFR
Wind Visibility
290° at 36 knots 10,000+ meters
Clouds
  • Few at 1,500' AGL
  • Scattered at 1,900' AGL
  • Broken at 2,300' AGL
Temperature Dewpoint
14°C / 57°F 10°C / 50°F
Humidity Altimeter Pressure
77% 30.03" Hg 1017 hPa